createdAt,value
2022-08-24T00:02:30.014Z,20.84
2022-08-24T00:05:21.070Z,20.78
2022-08-24T00:08:09.669Z,20.65
2022-08-24T00:10:59.626Z,20.52
2022-08-24T00:13:48.370Z,20.36
2022-08-24T00:16:37.035Z,20.19
2022-08-24T00:19:28.132Z,20.12
2022-08-24T00:22:16.602Z,20.13
2022-08-24T00:25:05.603Z,20.14
2022-08-24T00:27:54.373Z,20.10
2022-08-24T00:30:43.138Z,20.07
2022-08-24T00:33:31.647Z,20.04
2022-08-24T00:36:22.290Z,19.89
2022-08-24T00:39:11.227Z,19.74
2022-08-24T00:42:00.292Z,19.65
2022-08-24T00:44:48.838Z,19.57
2022-08-24T00:47:47.691Z,19.49
2022-08-24T00:50:39.648Z,19.45
2022-08-24T00:53:32.716Z,19.37
2022-08-24T00:56:26.610Z,19.35
2022-08-24T00:59:18.549Z,19.22
2022-08-24T01:02:15.560Z,19.20
2022-08-24T01:05:08.451Z,19.15
2022-08-24T01:07:57.060Z,19.05
2022-08-24T01:10:49.151Z,18.79
2022-08-24T01:13:37.678Z,18.85
2022-08-24T01:16:43.971Z,18.84
2022-08-24T01:19:38.485Z,18.86
2022-08-24T01:22:50.898Z,18.72
2022-08-24T01:25:43.731Z,18.62
2022-08-24T01:28:32.484Z,18.59
2022-08-24T01:31:22.204Z,18.54
2022-08-24T01:34:11.158Z,18.39
2022-08-24T01:37:00.337Z,18.36
2022-08-24T01:39:51.147Z,18.29
2022-08-24T01:42:41.105Z,18.42
2022-08-24T01:45:30.782Z,18.26
2022-08-24T01:48:23.036Z,18.28
2022-08-24T01:51:11.943Z,18.15
2022-08-24T01:54:02.805Z,18.00
2022-08-24T01:56:51.622Z,18.26
2022-08-24T01:59:42.316Z,18.24
2022-08-24T02:02:32.186Z,18.11
2022-08-24T02:05:20.929Z,17.73
2022-08-24T02:08:09.464Z,17.92
2022-08-24T02:10:58.028Z,17.82
2022-08-24T02:13:47.407Z,17.99
2022-08-24T02:16:38.496Z,17.92
2022-08-24T02:19:27.620Z,18.11
2022-08-24T02:22:16.299Z,17.72
2022-08-24T02:25:05.308Z,17.74
2022-08-24T02:27:53.863Z,17.81
2022-08-24T02:30:42.438Z,17.88
2022-08-24T02:33:32.296Z,17.98
2022-08-24T02:36:25.923Z,18.02
2022-08-24T02:39:14.969Z,17.99
2022-08-24T02:42:03.504Z,17.96
2022-08-24T02:44:52.516Z,17.87
2022-08-24T02:47:42.480Z,17.87
2022-08-24T02:50:32.452Z,17.84
2022-08-24T02:53:22.927Z,17.78
2022-08-24T02:56:11.764Z,17.44
2022-08-24T02:59:01.129Z,17.81
2022-08-24T03:01:50.009Z,17.79
2022-08-24T03:04:38.836Z,17.70
2022-08-24T03:07:29.046Z,17.68
2022-08-24T03:10:17.649Z,17.67
2022-08-24T03:13:07.539Z,17.59
2022-08-24T03:15:56.417Z,17.45
2022-08-24T03:18:45.050Z,17.39
2022-08-24T03:21:34.115Z,17.45
2022-08-24T03:24:24.006Z,17.36
2022-08-24T03:27:12.555Z,17.35
2022-08-24T03:30:01.542Z,17.34
2022-08-24T03:32:50.201Z,17.26
2022-08-24T03:35:39.014Z,17.24
2022-08-24T03:38:28.307Z,17.19
2022-08-24T03:41:18.180Z,17.07
2022-08-24T03:44:06.878Z,17.04
2022-08-24T03:46:55.387Z,16.94
2022-08-24T03:49:44.131Z,16.92
2022-08-24T03:52:34.016Z,16.88
2022-08-24T03:55:24.706Z,16.86
2022-08-24T03:58:14.983Z,16.93
2022-08-24T04:01:04.292Z,17.01
2022-08-24T04:03:53.950Z,17.11
2022-08-24T04:06:44.577Z,17.04
2022-08-24T04:09:33.233Z,16.90
2022-08-24T04:12:23.346Z,17.02
2022-08-24T04:15:13.716Z,17.13
2022-08-24T04:18:04.615Z,17.22
2022-08-24T04:20:53.587Z,17.27
2022-08-24T04:23:46.877Z,17.12
2022-08-24T04:26:45.132Z,17.01
2022-08-24T04:29:34.529Z,16.88
2022-08-24T04:32:24.454Z,16.88
2022-08-24T04:35:13.399Z,16.05
2022-08-24T04:38:01.943Z,16.85
2022-08-24T04:40:51.648Z,16.84
2022-08-24T04:43:42.795Z,17.00
2022-08-24T04:46:31.561Z,16.97
2022-08-24T04:49:21.651Z,16.98
2022-08-24T04:52:10.333Z,17.07
2022-08-24T04:54:58.887Z,17.06
2022-08-24T04:57:47.391Z,17.12
2022-08-24T05:00:35.949Z,17.16
2022-08-24T05:03:25.087Z,17.18
2022-08-24T05:06:16.252Z,17.04
2022-08-24T05:09:06.258Z,17.14
2022-08-24T05:11:55.594Z,17.26
2022-08-24T05:14:44.087Z,17.36
2022-08-24T05:17:32.625Z,17.42
2022-08-24T05:20:21.355Z,17.29
2022-08-24T05:23:11.656Z,17.59
2022-08-24T05:26:07.007Z,17.67
2022-08-24T05:28:56.216Z,17.54
2022-08-24T05:31:46.235Z,17.79
2022-08-24T05:34:35.267Z,17.82
2022-08-24T05:37:24.604Z,17.86
2022-08-24T05:40:17.445Z,17.95
2022-08-24T05:43:06.137Z,17.93
2022-08-24T05:45:54.666Z,18.02
2022-08-24T05:48:43.224Z,18.18
2022-08-24T05:51:42.516Z,18.41
2022-08-24T05:54:31.073Z,18.48
2022-08-24T05:57:21.062Z,18.45
2022-08-24T06:00:11.688Z,18.40
2022-08-24T06:03:00.481Z,18.49
2022-08-24T06:05:53.042Z,18.59
2022-08-24T06:08:44.246Z,18.76
2022-08-24T06:11:35.099Z,18.51
2022-08-24T06:14:27.024Z,18.82
2022-08-24T06:17:15.849Z,18.85
2022-08-24T06:20:05.170Z,18.88
2022-08-24T06:22:53.675Z,18.98
2022-08-24T06:25:59.655Z,19.14
2022-08-24T06:28:48.237Z,19.29
2022-08-24T06:31:40.099Z,19.38
2022-08-24T06:34:30.617Z,19.65
2022-08-24T06:37:19.310Z,19.88
2022-08-24T06:40:10.445Z,20.07
2022-08-24T06:43:03.373Z,20.16
2022-08-24T06:45:52.161Z,20.23
2022-08-24T06:48:42.618Z,20.35
2022-08-24T06:51:31.814Z,20.49
2022-08-24T06:54:20.960Z,20.67
2022-08-24T06:57:09.947Z,20.91
2022-08-24T06:59:58.952Z,21.14
2022-08-24T07:02:47.483Z,21.07
2022-08-24T07:05:37.560Z,21.32
2022-08-24T07:08:28.342Z,21.52
2022-08-24T07:11:18.599Z,21.78
2022-08-24T07:14:10.149Z,22.10
2022-08-24T07:16:58.835Z,22.23
2022-08-24T07:19:47.496Z,22.47
2022-08-24T07:22:37.474Z,22.77
2022-08-24T07:25:25.981Z,22.87
2022-08-24T07:28:15.047Z,23.02
2022-08-24T07:31:03.777Z,23.04
2022-08-24T07:33:52.454Z,23.23
2022-08-24T07:36:44.493Z,23.57
2022-08-24T07:39:34.669Z,23.74
2022-08-24T07:42:29.695Z,24.20
2022-08-24T07:45:22.397Z,24.57
2022-08-24T07:48:12.822Z,24.90
2022-08-24T07:51:08.518Z,25.09
2022-08-24T07:53:57.119Z,25.39
2022-08-24T07:56:47.179Z,25.57
2022-08-24T07:59:35.905Z,25.53
2022-08-24T08:02:25.050Z,25.84
2022-08-24T08:05:22.557Z,25.90
2022-08-24T08:08:11.995Z,25.79
2022-08-24T08:11:01.947Z,26.03
2022-08-24T08:13:51.890Z,26.29
2022-08-24T08:16:40.529Z,26.55
2022-08-24T08:19:29.267Z,26.76
2022-08-24T08:22:35.592Z,27.05
2022-08-24T08:25:24.312Z,27.09
2022-08-24T08:28:24.926Z,27.44
2022-08-24T08:31:16.102Z,27.73
2022-08-24T08:34:05.142Z,27.92
2022-08-24T08:36:54.460Z,28.08
2022-08-24T08:39:43.691Z,28.21
2022-08-24T08:42:40.621Z,28.53
2022-08-24T08:45:35.355Z,28.75
2022-08-24T08:48:49.306Z,28.68
2022-08-24T08:52:16.113Z,29.22
2022-08-24T08:55:14.680Z,29.34
2022-08-24T08:58:20.080Z,29.35
2022-08-24T09:01:16.914Z,29.34
2022-08-24T09:04:21.223Z,29.58
2022-08-24T09:07:22.446Z,29.91
2022-08-24T09:10:21.792Z,29.82
2022-08-24T09:13:24.537Z,29.74
2022-08-24T09:16:29.587Z,29.39
2022-08-24T09:19:32.271Z,29.18
2022-08-24T09:22:22.082Z,29.25
2022-08-24T09:25:26.649Z,29.54
2022-08-24T09:28:22.156Z,29.54
2022-08-24T09:31:36.437Z,29.72
2022-08-24T09:34:36.558Z,30.03
2022-08-24T09:37:33.311Z,30.15
2022-08-24T09:40:36.515Z,30.25
2022-08-24T09:44:09.658Z,30.11
2022-08-24T09:47:38.899Z,30.50
2022-08-24T09:50:44.048Z,30.20
2022-08-24T09:54:09.627Z,30.57
2022-08-24T09:57:13.276Z,30.72
2022-08-24T10:00:12.205Z,31.04
2022-08-24T10:03:08.242Z,31.14
2022-08-24T10:06:19.387Z,31.21
2022-08-24T10:09:24.084Z,31.37
2022-08-24T10:12:21.014Z,31.07
2022-08-24T10:15:12.160Z,31.01
2022-08-24T10:18:12.998Z,31.25
2022-08-24T10:21:20.127Z,31.47
2022-08-24T10:24:20.802Z,31.34
2022-08-24T10:27:27.955Z,31.32
2022-08-24T10:30:48.653Z,31.45
2022-08-24T10:33:44.499Z,31.74
2022-08-24T10:36:50.113Z,31.78
2022-08-24T10:40:20.158Z,31.77
2022-08-24T10:43:36.582Z,31.65
2022-08-24T10:46:49.473Z,32.12
2022-08-24T10:50:15.115Z,32.44
2022-08-24T10:53:19.950Z,32.15
2022-08-24T10:56:11.370Z,31.85
2022-08-24T10:59:08.809Z,31.64
2022-08-24T11:02:03.413Z,31.25
2022-08-24T11:05:03.632Z,31.66
2022-08-24T11:07:58.693Z,31.85
2022-08-24T11:11:06.756Z,32.06
2022-08-24T11:13:59.170Z,32.45
2022-08-24T11:16:48.584Z,31.80
2022-08-24T11:19:37.281Z,32.18
2022-08-24T11:22:40.645Z,32.52
2022-08-24T11:25:32.082Z,32.43
2022-08-24T11:28:26.643Z,32.77
2022-08-24T11:31:21.973Z,32.79
2022-08-24T11:34:14.507Z,32.32
2022-08-24T11:37:03.483Z,32.05
2022-08-24T11:39:52.195Z,31.94
2022-08-24T11:42:52.424Z,32.47
2022-08-24T11:45:46.550Z,32.59
2022-08-24T11:48:43.908Z,32.46
2022-08-24T11:51:38.373Z,32.41
2022-08-24T11:54:31.944Z,32.27
2022-08-24T11:57:23.500Z,32.47
2022-08-24T12:00:18.614Z,32.26
2022-08-24T12:03:17.169Z,32.44
2022-08-24T12:06:14.634Z,32.45
2022-08-24T12:09:08.984Z,32.36
2022-08-24T12:12:01.361Z,32.46
2022-08-24T12:14:55.023Z,32.27
2022-08-24T12:17:49.945Z,32.70
2022-08-24T12:20:43.763Z,32.79
2022-08-24T12:23:39.505Z,32.70
2022-08-24T12:26:31.302Z,32.15
2022-08-24T12:29:29.441Z,32.45
2022-08-24T12:32:20.629Z,32.19
2022-08-24T12:35:12.442Z,32.24
2022-08-24T12:38:08.268Z,32.33
2022-08-24T12:40:58.395Z,32.73
2022-08-24T12:43:51.199Z,32.88
2022-08-24T12:46:43.042Z,32.83
2022-08-24T12:49:33.845Z,32.30
2022-08-24T12:52:57.807Z,32.15
2022-08-24T12:56:14.667Z,32.47
2022-08-24T12:59:07.673Z,32.74
2022-08-24T13:02:02.777Z,33.13
2022-08-24T13:04:57.904Z,33.02
2022-08-24T13:07:48.266Z,33.17
2022-08-24T13:10:42.242Z,32.87
2022-08-24T13:13:47.847Z,32.64
2022-08-24T13:17:10.737Z,32.96
2022-08-24T13:20:19.459Z,32.73
2022-08-24T13:23:16.483Z,32.99
2022-08-24T13:26:24.254Z,32.94
2022-08-24T13:29:15.825Z,32.68
2022-08-24T13:32:04.657Z,32.38
2022-08-24T13:34:53.616Z,32.74
2022-08-24T13:37:42.632Z,33.01
2022-08-24T13:40:31.808Z,33.04
2022-08-24T13:43:24.595Z,32.93
2022-08-24T13:46:20.213Z,33.14
2022-08-24T13:49:22.624Z,31.97
2022-08-24T13:52:18.123Z,32.90
2022-08-24T13:55:23.336Z,32.95
2022-08-24T13:58:20.641Z,33.00
2022-08-24T14:01:29.132Z,32.91
2022-08-24T14:04:32.890Z,32.62
2022-08-24T14:07:23.797Z,32.89
2022-08-24T14:10:16.025Z,32.87
2022-08-24T14:13:16.057Z,32.87
2022-08-24T14:16:28.986Z,32.96
2022-08-24T14:19:21.709Z,32.85
2022-08-24T14:22:19.429Z,32.87
2022-08-24T14:25:20.987Z,33.07
2022-08-24T14:28:36.429Z,33.20
2022-08-24T14:31:29.491Z,33.16
2022-08-24T14:34:28.421Z,33.04
2022-08-24T14:37:22.507Z,33.11
2022-08-24T14:40:18.588Z,32.91
2022-08-24T14:43:28.517Z,32.73
2022-08-24T14:46:25.340Z,32.96
2022-08-24T14:49:25.683Z,32.93
2022-08-24T14:52:25.133Z,32.89
2022-08-24T14:55:21.621Z,32.73
2022-08-24T14:58:18.952Z,32.67
2022-08-24T15:01:40.476Z,32.47
2022-08-24T15:04:39.852Z,32.63
2022-08-24T15:07:31.243Z,32.73
2022-08-24T15:10:24.837Z,32.65
2022-08-24T15:13:21.702Z,32.70
2022-08-24T15:16:13.152Z,32.80
2022-08-24T15:19:06.904Z,32.66
2022-08-24T15:22:01.833Z,32.67
2022-08-24T15:24:56.352Z,32.62
2022-08-24T15:27:51.803Z,32.48
2022-08-24T15:30:42.230Z,32.43
2022-08-24T15:33:31.714Z,32.59
2022-08-24T15:36:20.863Z,32.47
2022-08-24T15:39:10.895Z,32.38
2022-08-24T15:42:00.751Z,32.42
2022-08-24T15:44:50.504Z,32.37
2022-08-24T15:47:41.030Z,32.47
2022-08-24T15:50:33.513Z,32.41
2022-08-24T15:53:35.366Z,32.28
2022-08-24T15:56:35.807Z,32.37
2022-08-24T15:59:29.866Z,32.38
2022-08-24T16:02:29.043Z,32.39
2022-08-24T16:05:21.759Z,32.38
2022-08-24T16:08:13.294Z,32.29
2022-08-24T16:11:10.346Z,32.17
2022-08-24T16:14:00.634Z,31.98
2022-08-24T16:16:54.512Z,32.05
2022-08-24T16:19:51.194Z,32.16
2022-08-24T16:22:58.575Z,32.07
2022-08-24T16:25:51.328Z,32.01
2022-08-24T16:28:40.101Z,32.05
2022-08-24T16:31:48.085Z,31.90
2022-08-24T16:34:36.743Z,31.89
2022-08-24T16:37:25.376Z,31.87
2022-08-24T16:40:14.123Z,31.91
2022-08-24T16:43:03.244Z,31.86
2022-08-24T16:45:51.812Z,31.73
2022-08-24T16:48:41.884Z,31.78
2022-08-24T16:51:30.412Z,31.67
2022-08-24T16:54:19.611Z,31.51
2022-08-24T16:57:13.802Z,31.47
2022-08-24T17:00:04.771Z,31.45
2022-08-24T17:02:53.383Z,31.42
2022-08-24T17:05:43.872Z,31.34
2022-08-24T17:08:32.579Z,31.42
2022-08-24T17:11:21.174Z,31.25
2022-08-24T17:14:10.391Z,31.18
2022-08-24T17:16:59.324Z,31.05
2022-08-24T17:19:49.468Z,30.84
2022-08-24T17:22:39.739Z,31.02
2022-08-24T17:25:30.051Z,30.95
2022-08-24T17:28:19.819Z,30.89
2022-08-24T17:31:08.447Z,30.82
2022-08-24T17:33:56.995Z,30.69
2022-08-24T17:36:46.251Z,30.61
2022-08-24T17:39:36.569Z,30.54
2022-08-24T17:42:49.470Z,30.46
2022-08-24T17:45:34.863Z,30.42
2022-08-24T17:48:26.410Z,30.33
2022-08-24T17:51:15.915Z,30.27
2022-08-24T17:54:04.709Z,30.07
2022-08-24T17:56:54.999Z,30.08
2022-08-24T17:59:44.027Z,30.04
2022-08-24T18:02:32.556Z,29.96
2022-08-24T18:05:21.452Z,29.86
2022-08-24T18:08:10.323Z,29.77
2022-08-24T18:10:59.453Z,29.70
2022-08-24T18:13:49.394Z,29.59
2022-08-24T18:16:38.090Z,29.51
2022-08-24T18:19:26.780Z,29.47
2022-08-24T18:22:15.840Z,29.32
2022-08-24T18:25:05.319Z,29.18
2022-08-24T18:28:03.142Z,29.03
2022-08-24T18:30:56.987Z,28.93
2022-08-24T18:33:45.670Z,28.86
2022-08-24T18:36:34.514Z,28.73
2022-08-24T18:39:23.492Z,28.63
2022-08-24T18:42:12.827Z,28.51
2022-08-24T18:45:03.280Z,28.38
2022-08-24T18:47:53.630Z,28.36
2022-08-24T18:50:42.383Z,28.27
2022-08-24T18:53:31.170Z,28.21
2022-08-24T18:56:20.031Z,28.08
2022-08-24T18:59:09.530Z,27.95
2022-08-24T19:02:16.401Z,27.81
2022-08-24T19:05:10.763Z,27.66
2022-08-24T19:08:07.380Z,27.52
2022-08-24T19:10:56.515Z,27.40
2022-08-24T19:13:46.237Z,27.26
2022-08-24T19:16:34.873Z,27.12
2022-08-24T19:19:23.518Z,26.89
2022-08-24T19:22:13.436Z,26.82
2022-08-24T19:25:04.198Z,26.74
2022-08-24T19:27:54.869Z,26.65
2022-08-24T19:30:44.530Z,26.51
2022-08-24T19:33:35.812Z,26.46
2022-08-24T19:36:24.370Z,26.39
2022-08-24T19:39:14.402Z,26.23
2022-08-24T19:42:05.447Z,26.13
2022-08-24T19:45:12.155Z,26.01
2022-08-24T19:48:00.755Z,25.79
2022-08-24T19:50:49.302Z,25.72
2022-08-24T19:53:38.816Z,25.66
2022-08-24T19:56:30.197Z,25.58
2022-08-24T19:59:21.163Z,25.47
2022-08-24T20:02:09.932Z,25.35
2022-08-24T20:04:59.371Z,25.35
2022-08-24T20:07:48.379Z,25.25
2022-08-24T20:10:37.386Z,25.17
2022-08-24T20:13:27.765Z,24.80
2022-08-24T20:16:18.092Z,24.79
2022-08-24T20:19:07.012Z,24.05
2022-08-24T20:21:55.647Z,24.82
2022-08-24T20:24:44.946Z,24.72
2022-08-24T20:27:33.612Z,24.68
2022-08-24T20:30:24.518Z,24.62
2022-08-24T20:33:15.273Z,24.38
2022-08-24T20:36:04.717Z,24.48
2022-08-24T20:38:54.144Z,24.42
2022-08-24T20:41:45.341Z,24.32
2022-08-24T20:44:34.007Z,24.30
2022-08-24T20:47:24.405Z,24.20
2022-08-24T20:50:13.037Z,24.14
2022-08-24T20:53:01.616Z,24.16
2022-08-24T20:55:50.336Z,24.06
2022-08-24T20:58:39.830Z,23.81
2022-08-24T21:01:28.438Z,23.85
2022-08-24T21:04:18.504Z,23.85
2022-08-24T21:07:10.368Z,23.81
2022-08-24T21:09:59.455Z,23.71
2022-08-24T21:12:50.044Z,23.63
2022-08-24T21:15:39.378Z,23.36
2022-08-24T21:18:28.013Z,23.51
2022-08-24T21:21:17.926Z,23.49
2022-08-24T21:24:07.772Z,23.44
2022-08-24T21:26:56.716Z,23.39
2022-08-24T21:29:45.427Z,23.32
2022-08-24T21:32:51.863Z,23.30
2022-08-24T21:35:41.300Z,23.26
2022-08-24T21:38:31.349Z,22.70
2022-08-24T21:41:20.149Z,23.10
2022-08-24T21:44:08.753Z,23.08
2022-08-24T21:46:57.868Z,23.02
2022-08-24T21:49:46.526Z,23.03
2022-08-24T21:52:35.124Z,22.98
2022-08-24T21:55:25.880Z,22.81
2022-08-24T21:58:14.483Z,22.78
2022-08-24T22:01:03.255Z,22.79
2022-08-24T22:03:51.862Z,22.72
2022-08-24T22:06:40.608Z,22.66
2022-08-24T22:09:29.448Z,22.64
2022-08-24T22:12:19.635Z,22.64
2022-08-24T22:15:12.594Z,22.57
2022-08-24T22:18:03.650Z,22.46
2022-08-24T22:20:52.238Z,22.34
2022-08-24T22:23:40.899Z,22.45
2022-08-24T22:26:30.594Z,22.42
2022-08-24T22:29:20.475Z,22.37
2022-08-24T22:32:09.231Z,22.28
2022-08-24T22:34:57.841Z,22.26
2022-08-24T22:40:35.007Z,22.22
2022-08-24T22:43:25.456Z,21.98
2022-08-24T22:46:15.813Z,22.18
2022-08-24T22:49:06.131Z,22.12
2022-08-24T22:51:54.853Z,22.13
2022-08-24T22:54:44.063Z,22.14
2022-08-24T22:57:33.060Z,22.06
2022-08-24T23:00:22.813Z,21.93
2022-08-24T23:03:12.743Z,22.01
2022-08-24T23:06:01.254Z,21.96
2022-08-24T23:08:49.953Z,21.64
2022-08-24T23:11:39.069Z,21.59
2022-08-24T23:14:27.605Z,21.62
2022-08-24T23:17:16.192Z,21.68
2022-08-24T23:20:08.334Z,21.69
2022-08-24T23:22:56.876Z,21.66
2022-08-24T23:25:45.442Z,21.66
2022-08-24T23:28:33.999Z,21.69
2022-08-24T23:31:23.166Z,21.67
2022-08-24T23:34:11.963Z,21.58
2022-08-24T23:37:02.637Z,21.32
2022-08-24T23:39:51.364Z,21.44
2022-08-24T23:42:40.019Z,21.40
2022-08-24T23:45:30.589Z,21.38
2022-08-24T23:48:19.251Z,21.29
2022-08-24T23:51:09.537Z,21.34
2022-08-24T23:53:59.415Z,21.28
2022-08-24T23:56:49.018Z,21.22
2022-08-24T23:59:37.603Z,21.20
